createdAt,value
2022-10-02T00:03:02.976Z,21.15
2022-10-02T00:08:02.816Z,21.00
2022-10-02T00:13:04.012Z,21.00
2022-10-02T00:18:03.384Z,20.77
2022-10-02T00:23:09.906Z,20.57
2022-10-02T00:28:16.165Z,20.47
2022-10-02T00:33:19.764Z,20.57
2022-10-02T00:38:24.753Z,20.78
2022-10-02T00:43:24.485Z,20.85
2022-10-02T00:48:31.070Z,20.73
2022-10-02T00:53:33.521Z,20.43
2022-10-02T00:58:57.240Z,20.20
2022-10-02T01:03:56.040Z,19.92
2022-10-02T01:08:56.079Z,19.86
2022-10-02T01:13:53.240Z,19.78
2022-10-02T01:18:50.944Z,19.82
2022-10-02T01:23:51.274Z,19.62
2022-10-02T01:28:49.527Z,19.73
2022-10-02T01:33:48.561Z,19.96
2022-10-02T01:38:46.698Z,19.84
2022-10-02T01:43:45.636Z,19.66
2022-10-02T01:48:45.581Z,19.95
2022-10-02T01:53:44.987Z,20.22
2022-10-02T01:58:47.694Z,20.26
2022-10-02T02:03:53.096Z,20.24
2022-10-02T02:09:00.921Z,20.02
2022-10-02T02:14:01.644Z,20.04
2022-10-02T02:19:00.131Z,20.27
2022-10-02T02:24:03.126Z,20.21
2022-10-02T02:29:03.264Z,20.30
2022-10-02T02:34:05.661Z,20.28
2022-10-02T02:39:06.575Z,20.14
2022-10-02T02:44:06.055Z,19.85
2022-10-02T02:49:04.937Z,19.97
2022-10-02T02:54:03.114Z,19.85
2022-10-02T02:59:05.845Z,19.62
2022-10-02T03:04:03.442Z,19.66
2022-10-02T03:09:00.896Z,19.36
2022-10-02T03:14:04.184Z,19.28
2022-10-02T03:19:10.460Z,19.25
2022-10-02T03:24:11.306Z,19.23
2022-10-02T03:29:13.811Z,19.26
2022-10-02T03:34:11.673Z,18.92
2022-10-02T03:39:26.124Z,18.93
2022-10-02T03:44:23.018Z,18.88
2022-10-02T03:49:22.550Z,18.88
2022-10-02T03:54:20.540Z,18.95
2022-10-02T03:59:23.440Z,18.84
2022-10-02T04:04:23.221Z,18.58
2022-10-02T04:09:21.925Z,18.43
2022-10-02T04:14:20.421Z,18.19
2022-10-02T04:19:21.130Z,18.23
2022-10-02T04:24:24.269Z,18.39
2022-10-02T04:29:23.672Z,18.30
2022-10-02T04:34:20.291Z,18.22
2022-10-02T04:39:28.785Z,18.42
2022-10-02T04:44:36.110Z,18.22
2022-10-02T04:49:43.944Z,18.04
2022-10-02T04:54:51.264Z,18.15
2022-10-02T04:59:53.892Z,18.04
2022-10-02T05:05:02.072Z,18.07
2022-10-02T05:10:02.566Z,18.19
2022-10-02T05:15:12.731Z,18.07
2022-10-02T05:20:17.656Z,17.99
2022-10-02T05:25:21.099Z,18.12
2022-10-02T05:30:22.616Z,17.93
2022-10-02T05:35:28.133Z,18.03
2022-10-02T05:40:30.232Z,18.17
2022-10-02T05:45:32.534Z,18.01
2022-10-02T05:50:31.540Z,18.02
2022-10-02T05:55:33.621Z,17.90
2022-10-02T06:00:32.732Z,18.15
2022-10-02T06:05:30.359Z,18.39
2022-10-02T06:10:29.179Z,18.40
2022-10-02T06:15:30.819Z,18.40
2022-10-02T06:20:30.405Z,18.49
2022-10-02T06:25:29.552Z,18.75
2022-10-02T06:30:29.312Z,18.83
2022-10-02T06:35:33.168Z,18.86
2022-10-02T06:40:42.517Z,19.09
2022-10-02T06:45:45.779Z,18.97
2022-10-02T06:50:49.413Z,19.14
2022-10-02T06:55:51.344Z,19.37
2022-10-02T07:00:53.616Z,19.72
2022-10-02T07:06:09.944Z,19.80
2022-10-02T07:11:13.595Z,19.88
2022-10-02T07:16:17.543Z,19.80
2022-10-02T07:21:21.139Z,19.94
2022-10-02T07:26:32.653Z,19.90
2022-10-02T07:31:38.916Z,19.95
2022-10-02T07:36:44.708Z,20.08
2022-10-02T07:41:56.176Z,20.49
2022-10-02T07:46:59.117Z,20.62
2022-10-02T07:51:58.128Z,20.77
2022-10-02T07:56:56.999Z,20.78
2022-10-02T08:01:56.956Z,20.77
2022-10-02T08:06:57.076Z,20.79
2022-10-02T08:11:55.942Z,20.97
2022-10-02T08:16:53.920Z,20.96
2022-10-02T08:21:56.567Z,21.02
2022-10-02T08:26:55.697Z,20.98
2022-10-02T08:31:52.769Z,20.75
2022-10-02T08:37:04.300Z,21.05
2022-10-02T08:42:19.503Z,21.11
2022-10-02T08:47:37.105Z,21.34
2022-10-02T08:52:57.723Z,21.65
2022-10-02T08:58:18.504Z,21.41
2022-10-02T09:09:59.793Z,21.75
2022-10-02T09:15:37.651Z,21.94
2022-10-02T09:21:11.665Z,22.05
2022-10-02T09:26:49.581Z,21.94
2022-10-02T09:39:04.965Z,22.15
2022-10-02T09:44:13.623Z,22.29
2022-10-02T10:01:13.012Z,21.90
2022-10-02T10:06:40.017Z,22.07
2022-10-02T10:12:30.611Z,22.14
2022-10-02T10:18:19.516Z,22.33
2022-10-02T10:23:33.599Z,22.60
2022-10-02T10:28:47.990Z,22.62
2022-10-02T10:34:05.295Z,22.63
2022-10-02T10:39:15.245Z,22.64
2022-10-02T10:44:19.626Z,22.70
2022-10-02T10:49:25.994Z,23.06
2022-10-02T10:54:44.255Z,23.02
2022-10-02T10:59:50.475Z,23.07
2022-10-02T11:05:03.278Z,22.78
2022-10-02T11:10:09.477Z,23.14
2022-10-02T11:15:22.417Z,23.15
2022-10-02T11:20:30.844Z,22.98
2022-10-02T11:25:42.563Z,23.17
2022-10-02T11:30:48.682Z,23.17
2022-10-02T11:35:57.809Z,23.32
2022-10-02T11:41:02.467Z,23.39
2022-10-02T11:46:06.961Z,23.69
2022-10-02T11:51:21.314Z,23.64
2022-10-02T11:56:30.699Z,23.75
2022-10-02T12:01:33.026Z,23.78
2022-10-02T12:06:39.851Z,23.72
2022-10-02T12:11:41.519Z,23.69
2022-10-02T12:16:45.637Z,23.80
2022-10-02T12:22:08.258Z,23.51
2022-10-02T12:27:09.277Z,23.83
2022-10-02T12:32:13.587Z,23.72
2022-10-02T12:37:15.348Z,23.63
2022-10-02T12:42:26.128Z,23.79
2022-10-02T12:47:28.653Z,23.68
2022-10-02T12:52:40.060Z,23.66
2022-10-02T12:57:55.363Z,23.77
2022-10-02T13:03:10.614Z,23.76
2022-10-02T13:08:15.586Z,23.60
2022-10-02T13:13:21.589Z,23.76
2022-10-02T13:18:33.332Z,23.87
2022-10-02T13:23:38.708Z,23.91
2022-10-02T13:29:02.511Z,23.92
2022-10-02T13:34:05.428Z,23.91
2022-10-02T13:39:14.333Z,23.73
2022-10-02T13:44:17.299Z,23.64
2022-10-02T13:49:22.478Z,23.60
2022-10-02T13:54:28.767Z,23.50
2022-10-02T13:59:38.905Z,23.41
2022-10-02T14:04:43.176Z,23.41
2022-10-02T14:09:49.173Z,23.18
2022-10-02T14:14:55.738Z,23.17
2022-10-02T14:20:00.817Z,23.25
2022-10-02T14:25:08.283Z,23.26
2022-10-02T14:30:06.982Z,23.20
2022-10-02T14:35:16.651Z,23.24
2022-10-02T14:40:14.461Z,23.23
2022-10-02T14:45:31.952Z,23.20
2022-10-02T14:50:41.388Z,23.27
2022-10-02T14:55:52.895Z,23.22
2022-10-02T15:00:57.514Z,23.08
2022-10-02T15:06:05.662Z,23.02
2022-10-02T15:11:13.913Z,22.91
2022-10-02T15:16:33.086Z,22.87
2022-10-02T15:21:31.780Z,22.76
2022-10-02T15:26:47.315Z,22.66
2022-10-02T15:31:47.455Z,22.66
2022-10-02T15:37:06.105Z,22.62
2022-10-02T15:42:06.382Z,22.68
2022-10-02T15:47:09.676Z,22.57
2022-10-02T15:52:33.686Z,22.44
2022-10-02T15:57:40.098Z,22.41
2022-10-02T16:02:50.745Z,22.33
2022-10-02T16:08:00.120Z,22.26
2022-10-02T16:13:07.061Z,21.86
2022-10-02T16:18:18.564Z,21.90
2022-10-02T16:23:22.571Z,21.56
2022-10-02T16:28:31.171Z,21.42
2022-10-02T16:34:06.710Z,21.58
2022-10-02T16:39:13.233Z,21.77
2022-10-02T16:44:22.421Z,21.73
2022-10-02T16:49:23.151Z,21.82
2022-10-02T16:54:23.942Z,21.65
2022-10-02T16:59:27.701Z,21.31
2022-10-02T17:04:29.801Z,20.97
2022-10-02T17:09:32.163Z,20.80
2022-10-02T17:14:37.076Z,20.69
2022-10-02T17:19:48.069Z,20.52
2022-10-02T17:24:50.778Z,20.48
2022-10-02T17:29:58.065Z,20.35
2022-10-02T17:35:32.895Z,20.59
2022-10-02T17:40:34.797Z,21.01
2022-10-02T17:45:36.355Z,21.18
2022-10-02T17:50:44.752Z,21.23
2022-10-02T17:56:32.613Z,21.17
2022-10-02T18:01:36.603Z,21.08
2022-10-02T18:06:38.835Z,20.96
2022-10-02T18:11:47.373Z,20.66
2022-10-02T18:16:52.227Z,20.47
2022-10-02T18:21:56.329Z,20.30
2022-10-02T18:27:07.906Z,20.26
2022-10-02T18:32:17.077Z,19.44
2022-10-02T18:37:22.646Z,19.31
2022-10-02T18:42:40.346Z,18.88
2022-10-02T18:47:44.931Z,18.88
2022-10-02T18:52:53.060Z,18.84
2022-10-02T18:57:57.964Z,18.57
2022-10-02T19:03:03.154Z,18.35
2022-10-02T19:08:09.550Z,18.27
2022-10-02T19:13:17.282Z,18.16
2022-10-02T19:18:23.227Z,18.57
2022-10-02T19:23:23.006Z,18.35
2022-10-02T19:28:21.278Z,18.24
2022-10-02T19:33:21.600Z,18.03
2022-10-02T19:38:26.949Z,17.93
2022-10-02T19:43:29.749Z,17.53
2022-10-02T19:48:32.078Z,17.69
2022-10-02T19:53:33.462Z,17.79
2022-10-02T19:58:33.273Z,17.64
2022-10-02T20:03:32.188Z,17.64
2022-10-02T20:08:32.634Z,17.30
2022-10-02T20:13:44.860Z,17.21
2022-10-02T20:18:49.934Z,17.26
2022-10-02T20:23:50.321Z,17.32
2022-10-02T20:28:57.960Z,17.43
2022-10-02T20:34:05.363Z,17.54
2022-10-02T20:39:04.274Z,17.37
2022-10-02T20:44:05.649Z,17.56
2022-10-02T20:49:11.787Z,17.50
2022-10-02T20:54:16.428Z,17.32
2022-10-02T20:59:39.220Z,17.25
2022-10-02T21:04:52.694Z,17.10
2022-10-02T21:10:10.703Z,17.31
2022-10-02T21:15:23.894Z,17.18
2022-10-02T21:20:57.103Z,17.23
2022-10-02T21:26:06.818Z,17.30
2022-10-02T21:31:10.061Z,17.26
2022-10-02T21:36:09.326Z,17.00
2022-10-02T21:41:28.568Z,17.15
2022-10-02T21:46:45.690Z,16.98
2022-10-02T21:51:56.710Z,16.82
2022-10-02T21:57:03.829Z,16.95
2022-10-02T22:02:18.735Z,16.83
2022-10-02T22:07:21.372Z,16.85
2022-10-02T22:12:24.284Z,16.75
2022-10-02T22:17:25.534Z,16.57
2022-10-02T22:22:30.760Z,16.69
2022-10-02T22:27:40.671Z,16.63
2022-10-02T22:33:11.200Z,16.51
2022-10-02T22:38:15.128Z,16.50
2022-10-02T22:43:18.290Z,16.38
2022-10-02T22:48:17.315Z,16.33
2022-10-02T22:53:17.871Z,16.26
2022-10-02T22:58:18.865Z,16.12
2022-10-02T23:03:20.118Z,16.25
2022-10-02T23:08:22.947Z,16.15
2022-10-02T23:13:22.052Z,16.26
2022-10-02T23:18:26.862Z,16.13
2022-10-02T23:23:28.076Z,16.55
2022-10-02T23:28:28.218Z,16.53
2022-10-02T23:33:26.666Z,16.44
2022-10-02T23:38:28.149Z,16.38
2022-10-02T23:43:29.482Z,16.44
2022-10-02T23:48:31.702Z,16.35
2022-10-02T23:53:45.688Z,16.50
2022-10-02T23:58:57.117Z,16.47
